createdAt,value
2019-01-26T00:00:00.471Z,5.83
2019-01-26T00:01:03.496Z,5.40
2019-01-26T00:02:06.020Z,5.20
2019-01-26T00:03:07.236Z,6.03
2019-01-26T00:04:08.348Z,6.17
2019-01-26T00:05:09.563Z,5.55
2019-01-26T00:06:10.787Z,5.50
2019-01-26T00:07:12.010Z,5.45
2019-01-26T00:08:13.123Z,5.67
2019-01-26T00:09:14.244Z,5.50
2019-01-26T00:10:15.358Z,5.20
2019-01-26T00:11:16.682Z,5.15
2019-01-26T00:12:17.801Z,5.20
2019-01-26T00:13:19.016Z,5.53
2019-01-26T00:14:20.127Z,4.78
2019-01-26T00:15:21.339Z,5.33
2019-01-26T00:16:22.471Z,5.70
2019-01-26T00:17:23.585Z,5.67
2019-01-26T00:18:24.704Z,6.05
2019-01-26T00:19:25.817Z,5.58
2019-01-26T00:20:28.086Z,5.60
2019-01-26T00:21:29.234Z,5.08
2019-01-26T00:22:30.449Z,5.30
2019-01-26T00:23:31.659Z,5.45
2019-01-26T00:24:32.776Z,5.62
2019-01-26T00:25:33.881Z,5.83
2019-01-26T00:26:36.423Z,5.80
2019-01-26T00:27:37.860Z,5.37
2019-01-26T00:28:38.971Z,5.45
2019-01-26T00:29:40.084Z,4.85
2019-01-26T00:30:41.192Z,5.00
2019-01-26T00:31:42.420Z,4.90
2019-01-26T00:32:43.633Z,5.10
2019-01-26T00:33:44.852Z,5.65
2019-01-26T00:34:45.972Z,5.60
2019-01-26T00:35:47.186Z,5.17
2019-01-26T00:36:48.416Z,5.17
2019-01-26T00:37:49.533Z,5.22
2019-01-26T00:38:50.645Z,4.90
2019-01-26T00:39:51.758Z,5.12
2019-01-26T00:40:52.874Z,4.78
2019-01-26T00:41:54.099Z,5.10
2019-01-26T00:42:55.214Z,4.90
2019-01-26T00:43:56.329Z,4.37
2019-01-26T00:44:57.544Z,4.55
2019-01-26T00:45:58.656Z,5.08
2019-01-26T00:46:59.817Z,5.33
2019-01-26T00:48:00.923Z,4.75
2019-01-26T00:49:02.045Z,4.80
2019-01-26T00:50:08.816Z,4.97
2019-01-26T00:51:10.085Z,4.80
2019-01-26T00:52:11.364Z,4.37
2019-01-26T00:53:12.479Z,4.92
2019-01-26T00:54:13.589Z,4.42
2019-01-26T00:55:15.003Z,4.17
2019-01-26T00:56:16.234Z,4.70
2019-01-26T00:57:17.510Z,4.83
2019-01-26T00:58:18.724Z,4.30
2019-01-26T00:59:19.839Z,4.50
2019-01-26T01:00:21.452Z,4.28
2019-01-26T01:01:22.564Z,4.30
2019-01-26T01:02:23.829Z,4.50
2019-01-26T01:03:25.002Z,4.50
2019-01-26T01:04:26.257Z,4.17
2019-01-26T01:05:27.374Z,4.50
2019-01-26T01:06:28.484Z,4.25
2019-01-26T01:07:29.637Z,4.40
2019-01-26T01:08:30.858Z,4.10
2019-01-26T01:09:31.978Z,4.20
2019-01-26T01:10:33.100Z,4.60
2019-01-26T01:11:34.318Z,4.50
2019-01-26T01:12:35.476Z,4.33
2019-01-26T01:13:36.586Z,3.87
2019-01-26T01:14:37.693Z,3.67
2019-01-26T01:15:38.811Z,4.87
2019-01-26T01:16:39.923Z,5.00
2019-01-26T01:17:41.046Z,4.28
2019-01-26T01:18:42.160Z,4.15
2019-01-26T01:19:43.283Z,4.72
2019-01-26T01:20:44.433Z,4.15
2019-01-26T01:21:45.596Z,4.35
2019-01-26T01:22:46.970Z,3.67
2019-01-26T01:23:48.084Z,4.87
2019-01-26T01:24:49.204Z,4.37
2019-01-26T01:25:50.315Z,4.22
2019-01-26T01:26:51.425Z,4.25
2019-01-26T01:27:52.549Z,3.72
2019-01-26T01:28:53.761Z,3.98
2019-01-26T01:29:54.877Z,3.83
2019-01-26T01:30:55.988Z,4.15
2019-01-26T01:31:57.100Z,3.87
2019-01-26T01:32:58.229Z,4.53
2019-01-26T01:33:59.344Z,3.77
2019-01-26T01:35:00.561Z,3.52
2019-01-26T01:36:01.674Z,3.77
2019-01-26T01:37:03.084Z,4.00
2019-01-26T01:38:04.209Z,3.27
2019-01-26T01:39:06.530Z,4.00
2019-01-26T01:40:09.636Z,3.42
2019-01-26T01:41:10.748Z,3.40
2019-01-26T01:42:11.865Z,3.72
2019-01-26T01:43:12.991Z,3.85
2019-01-26T01:44:14.108Z,3.50
2019-01-26T01:45:17.521Z,3.75
2019-01-26T01:46:18.641Z,4.30
2019-01-26T01:47:19.756Z,4.33
2019-01-26T01:48:20.874Z,4.17
2019-01-26T01:49:22.036Z,3.85
2019-01-26T01:50:23.253Z,4.10
2019-01-26T01:51:24.365Z,3.90
2019-01-26T01:52:25.484Z,3.62
2019-01-26T01:53:26.636Z,3.60
2019-01-26T01:54:27.752Z,3.62
2019-01-26T01:55:28.969Z,4.10
2019-01-26T01:56:30.092Z,3.87
2019-01-26T01:57:31.206Z,4.20
2019-01-26T01:58:32.356Z,4.08
2019-01-26T01:59:33.476Z,4.12
2019-01-26T02:00:34.897Z,3.15
2019-01-26T02:01:36.136Z,3.30
2019-01-26T02:02:37.249Z,3.25
2019-01-26T02:03:38.704Z,4.25
2019-01-26T02:04:39.819Z,3.73
2019-01-26T02:05:41.227Z,4.33
2019-01-26T02:06:42.340Z,3.17
2019-01-26T02:07:43.551Z,3.58
2019-01-26T02:08:44.700Z,3.20
2019-01-26T02:09:45.819Z,3.90
2019-01-26T02:10:46.932Z,3.40
2019-01-26T02:11:48.048Z,3.65
2019-01-26T02:12:49.262Z,3.47
2019-01-26T02:13:50.519Z,3.17
2019-01-26T02:14:51.632Z,3.70
2019-01-26T02:15:52.739Z,3.42
2019-01-26T02:16:53.851Z,3.40
2019-01-26T02:17:54.966Z,3.55
2019-01-26T02:18:56.098Z,3.40
2019-01-26T02:19:57.210Z,3.45
2019-01-26T02:20:58.321Z,3.62
2019-01-26T02:21:59.432Z,3.67
2019-01-26T02:23:00.653Z,4.05
2019-01-26T02:24:04.181Z,3.05
2019-01-26T02:25:05.276Z,3.25
2019-01-26T02:26:06.384Z,3.83
2019-01-26T02:27:07.499Z,3.52
2019-01-26T02:28:08.721Z,3.58
2019-01-26T02:29:09.846Z,2.85
2019-01-26T02:30:13.960Z,4.03
2019-01-26T02:31:15.280Z,3.87
2019-01-26T02:32:16.497Z,3.95
2019-01-26T02:33:17.609Z,3.60
2019-01-26T02:34:18.764Z,3.47
2019-01-26T02:35:19.881Z,3.47
2019-01-26T02:36:21.108Z,3.03
2019-01-26T02:37:22.223Z,3.72
2019-01-26T02:38:23.332Z,3.40
2019-01-26T02:39:24.560Z,3.20
2019-01-26T02:40:25.674Z,3.25
2019-01-26T02:41:26.787Z,3.58
2019-01-26T02:42:28.000Z,3.40
2019-01-26T02:43:29.179Z,3.40
2019-01-26T02:44:30.345Z,3.67
2019-01-26T02:45:31.458Z,3.37
2019-01-26T02:46:32.572Z,3.60
2019-01-26T02:47:33.679Z,3.33
2019-01-26T02:48:34.805Z,3.70
2019-01-26T02:49:35.954Z,3.12
2019-01-26T02:50:37.109Z,3.58
2019-01-26T02:51:38.227Z,3.00
2019-01-26T02:52:39.644Z,3.50
2019-01-26T02:53:40.751Z,2.85
2019-01-26T02:54:42.006Z,3.25
2019-01-26T02:55:43.119Z,3.17
2019-01-26T02:56:44.247Z,2.90
2019-01-26T02:57:45.361Z,3.40
2019-01-26T02:58:46.476Z,2.92
2019-01-26T02:59:47.624Z,3.20
2019-01-26T03:00:49.039Z,3.52
2019-01-26T03:01:50.261Z,3.15
2019-01-26T03:02:51.377Z,3.83
2019-01-26T03:03:52.613Z,3.22
2019-01-26T03:04:53.753Z,2.97
2019-01-26T03:05:54.867Z,3.35
2019-01-26T03:06:55.983Z,3.22
2019-01-26T03:07:57.093Z,3.60
2019-01-26T03:08:58.213Z,3.45
2019-01-26T03:09:59.341Z,3.20
2019-01-26T03:11:00.456Z,3.30
2019-01-26T03:12:01.672Z,3.17
2019-01-26T03:13:03.190Z,3.02
2019-01-26T03:14:04.304Z,3.60
2019-01-26T03:15:08.865Z,3.45
2019-01-26T03:16:09.979Z,3.87
2019-01-26T03:17:11.190Z,3.40
2019-01-26T03:18:12.406Z,3.58
2019-01-26T03:19:13.623Z,2.92
2019-01-26T03:20:16.087Z,3.77
2019-01-26T03:21:17.200Z,3.07
2019-01-26T03:22:18.452Z,3.20
2019-01-26T03:23:19.667Z,3.25
2019-01-26T03:24:20.789Z,2.87
2019-01-26T03:25:21.948Z,3.77
2019-01-26T03:26:23.059Z,3.72
2019-01-26T03:27:24.164Z,3.10
2019-01-26T03:28:25.284Z,3.10
2019-01-26T03:29:26.504Z,3.10
2019-01-26T03:30:27.763Z,2.70
2019-01-26T03:31:28.977Z,3.22
2019-01-26T03:32:30.102Z,3.20
2019-01-26T03:33:31.210Z,3.02
2019-01-26T03:34:32.428Z,3.02
2019-01-26T03:35:33.581Z,3.67
2019-01-26T03:36:34.698Z,3.15
2019-01-26T03:37:35.815Z,2.67
2019-01-26T03:38:36.928Z,3.10
2019-01-26T03:39:38.049Z,2.65
2019-01-26T03:40:39.172Z,3.08
2019-01-26T03:41:40.287Z,3.20
2019-01-26T03:42:41.405Z,2.80
2019-01-26T03:43:42.602Z,2.70
2019-01-26T03:44:43.843Z,3.27
2019-01-26T03:45:44.976Z,2.95
2019-01-26T03:46:46.085Z,3.08
2019-01-26T03:47:47.244Z,3.35
2019-01-26T03:48:48.362Z,2.77
2019-01-26T03:49:49.477Z,3.37
2019-01-26T03:50:50.699Z,3.00
2019-01-26T03:51:51.835Z,3.02
2019-01-26T03:52:53.044Z,3.22
2019-01-26T03:53:54.160Z,3.05
2019-01-26T03:54:55.379Z,3.00
2019-01-26T03:55:56.624Z,3.20
2019-01-26T03:56:59.729Z,3.20
2019-01-26T03:58:00.940Z,2.77
2019-01-26T03:59:02.156Z,2.72
2019-01-26T04:00:09.945Z,2.95
2019-01-26T04:01:11.081Z,2.62
2019-01-26T04:02:12.296Z,3.52
2019-01-26T04:03:13.505Z,2.85
2019-01-26T04:04:14.718Z,2.90
2019-01-26T04:05:15.824Z,3.20
2019-01-26T04:06:16.952Z,3.00
2019-01-26T04:07:18.195Z,2.80
2019-01-26T04:08:19.387Z,3.05
2019-01-26T04:09:20.499Z,3.20
2019-01-26T04:10:21.613Z,2.40
2019-01-26T04:11:22.863Z,2.58
2019-01-26T04:12:23.962Z,3.00
2019-01-26T04:13:25.177Z,3.20
2019-01-26T04:14:26.291Z,2.55
2019-01-26T04:15:27.496Z,2.55
2019-01-26T04:16:28.620Z,2.67
2019-01-26T04:17:29.733Z,2.80
2019-01-26T04:18:30.920Z,2.77
2019-01-26T04:19:32.044Z,3.10
2019-01-26T04:20:33.144Z,2.67
2019-01-26T04:21:34.407Z,2.35
2019-01-26T04:22:35.612Z,2.98
2019-01-26T04:23:36.725Z,2.77
2019-01-26T04:24:37.852Z,2.90
2019-01-26T04:25:39.036Z,2.50
2019-01-26T04:26:40.304Z,3.02
2019-01-26T04:27:41.426Z,3.02
2019-01-26T04:28:42.646Z,2.98
2019-01-26T04:29:43.752Z,3.35
2019-01-26T04:30:44.866Z,3.02
2019-01-26T04:31:46.121Z,2.33
2019-01-26T04:32:47.436Z,2.97
2019-01-26T04:33:48.565Z,2.62
2019-01-26T04:34:49.676Z,2.67
2019-01-26T04:35:50.788Z,2.50
2019-01-26T04:36:51.908Z,2.58
2019-01-26T04:37:53.021Z,3.05
2019-01-26T04:38:54.143Z,2.83
2019-01-26T04:39:55.250Z,2.20
2019-01-26T04:40:56.360Z,2.67
2019-01-26T04:41:57.496Z,2.52
2019-01-26T04:42:58.615Z,2.67
2019-01-26T04:43:59.733Z,2.92
2019-01-26T04:45:00.874Z,2.92
2019-01-26T04:46:02.081Z,2.60
2019-01-26T04:47:03.333Z,2.33
2019-01-26T04:48:05.141Z,2.70
2019-01-26T04:49:06.261Z,3.42
2019-01-26T04:50:10.375Z,2.85
2019-01-26T04:51:11.489Z,2.85
2019-01-26T04:52:12.631Z,3.37
2019-01-26T04:53:13.745Z,2.95
2019-01-26T04:54:14.862Z,3.12
2019-01-26T04:55:17.978Z,2.55
2019-01-26T04:56:19.095Z,2.65
2019-01-26T04:57:20.336Z,2.90
2019-01-26T04:58:21.561Z,2.52
2019-01-26T04:59:23.118Z,2.87
2019-01-26T05:00:25.831Z,2.50
2019-01-26T05:01:26.947Z,3.02
2019-01-26T05:02:28.098Z,2.65
2019-01-26T05:03:29.219Z,2.70
2019-01-26T05:04:30.434Z,2.55
2019-01-26T05:05:31.551Z,2.85
2019-01-26T05:06:32.670Z,2.92
2019-01-26T05:07:33.840Z,2.45
2019-01-26T05:08:34.951Z,2.58
2019-01-26T05:09:36.079Z,2.70
2019-01-26T05:10:37.189Z,3.05
2019-01-26T05:11:38.295Z,2.90
2019-01-26T05:12:39.444Z,2.80
2019-01-26T05:13:40.665Z,2.62
2019-01-26T05:14:41.780Z,2.45
2019-01-26T05:15:42.895Z,3.87
2019-01-26T05:16:44.008Z,2.92
2019-01-26T05:17:45.131Z,2.77
2019-01-26T05:18:46.248Z,2.37
2019-01-26T05:19:47.366Z,3.08
2019-01-26T05:20:48.480Z,2.65
2019-01-26T05:21:49.796Z,2.75
2019-01-26T05:22:51.121Z,2.45
2019-01-26T05:23:52.219Z,2.27
2019-01-26T05:24:53.333Z,2.25
2019-01-26T05:25:54.446Z,2.83
2019-01-26T05:26:55.564Z,2.70
2019-01-26T05:27:56.815Z,2.22
2019-01-26T05:28:57.928Z,2.00
2019-01-26T05:29:59.043Z,2.50
2019-01-26T05:31:00.156Z,2.25
2019-01-26T05:32:01.368Z,2.00
2019-01-26T05:33:02.491Z,2.60
2019-01-26T05:34:03.604Z,2.25
2019-01-26T05:35:04.912Z,2.27
2019-01-26T05:36:06.028Z,2.05
2019-01-26T05:37:07.139Z,2.30
2019-01-26T05:38:08.384Z,2.20
2019-01-26T05:39:09.499Z,2.60
2019-01-26T05:40:12.910Z,2.22
2019-01-26T05:41:14.026Z,2.27
2019-01-26T05:42:15.139Z,2.58
2019-01-26T05:43:16.260Z,2.27
2019-01-26T05:44:17.472Z,2.65
2019-01-26T05:45:20.384Z,1.90
2019-01-26T05:46:21.528Z,2.20
2019-01-26T05:47:22.606Z,2.70
2019-01-26T05:48:23.840Z,2.10
2019-01-26T05:49:24.948Z,2.40
2019-01-26T05:50:26.056Z,2.10
2019-01-26T05:51:27.168Z,2.20
2019-01-26T05:52:28.283Z,2.23
2019-01-26T05:53:29.614Z,2.65
2019-01-26T05:54:30.721Z,2.10
2019-01-26T05:55:31.838Z,2.20
2019-01-26T05:56:32.945Z,1.72
2019-01-26T05:57:34.173Z,2.15
2019-01-26T05:58:35.314Z,1.75
2019-01-26T05:59:36.436Z,1.67
2019-01-26T06:00:37.654Z,2.12
2019-01-26T06:01:38.931Z,2.08
2019-01-26T06:02:40.047Z,2.30
2019-01-26T06:03:41.265Z,2.60
2019-01-26T06:04:42.382Z,2.23
2019-01-26T06:05:43.496Z,1.62
2019-01-26T06:06:44.613Z,1.87
2019-01-26T06:07:45.732Z,2.60
2019-01-26T06:08:46.856Z,1.62
2019-01-26T06:09:47.966Z,1.90
2019-01-26T06:10:49.079Z,1.92
2019-01-26T06:11:50.294Z,1.80
2019-01-26T06:12:51.504Z,1.72
2019-01-26T06:13:52.901Z,1.52
2019-01-26T06:14:54.016Z,1.82
2019-01-26T06:15:55.125Z,1.70
2019-01-26T06:16:56.240Z,2.02
2019-01-26T06:17:57.456Z,2.12
2019-01-26T06:18:58.588Z,1.55
2019-01-26T06:20:00.003Z,1.72
2019-01-26T06:21:01.216Z,2.10
2019-01-26T06:22:02.333Z,1.90
2019-01-26T06:23:03.448Z,1.60
2019-01-26T06:24:04.668Z,1.70
2019-01-26T06:25:12.091Z,1.90
2019-01-26T06:26:13.212Z,1.82
2019-01-26T06:27:14.328Z,1.82
2019-01-26T06:28:15.448Z,2.12
2019-01-26T06:29:16.577Z,1.67
2019-01-26T06:30:22.640Z,1.80
2019-01-26T06:31:23.748Z,1.80
2019-01-26T06:32:28.483Z,1.55
2019-01-26T06:33:29.601Z,1.67
2019-01-26T06:34:30.731Z,2.30
2019-01-26T06:35:31.837Z,2.20
2019-01-26T06:36:32.952Z,1.80
2019-01-26T06:37:34.238Z,1.77
2019-01-26T06:38:35.353Z,2.50
2019-01-26T06:39:36.614Z,2.45
2019-01-26T06:40:37.726Z,2.02
2019-01-26T06:41:38.944Z,1.90
2019-01-26T06:42:40.059Z,2.00
2019-01-26T06:43:41.168Z,1.72
2019-01-26T06:44:42.330Z,2.95
2019-01-26T06:45:43.436Z,2.62
2019-01-26T06:46:44.549Z,2.10
2019-01-26T06:47:45.667Z,3.20
2019-01-26T06:48:48.680Z,2.33
2019-01-26T06:49:49.828Z,1.95
2019-01-26T06:50:51.039Z,1.77
2019-01-26T06:51:54.713Z,2.83
2019-01-26T06:52:55.822Z,1.80
2019-01-26T06:53:56.945Z,2.00
2019-01-26T06:54:58.100Z,2.00
2019-01-26T06:55:59.216Z,1.72
2019-01-26T06:57:00.337Z,1.75
2019-01-26T06:58:01.561Z,1.60
2019-01-26T06:59:02.788Z,2.20
2019-01-26T07:00:07.681Z,2.10
2019-01-26T07:01:08.785Z,1.82
2019-01-26T07:02:09.896Z,2.60
2019-01-26T07:03:11.555Z,2.40
2019-01-26T07:04:14.579Z,2.70
2019-01-26T07:05:20.896Z,1.67
2019-01-26T07:06:23.920Z,1.50
2019-01-26T07:07:25.033Z,1.98
2019-01-26T07:08:26.149Z,1.67
2019-01-26T07:09:27.268Z,1.60
2019-01-26T07:10:28.522Z,1.85
2019-01-26T07:11:29.740Z,1.57
2019-01-26T07:12:30.844Z,1.92
2019-01-26T07:13:31.963Z,1.50
2019-01-26T07:14:33.073Z,2.40
2019-01-26T07:15:34.308Z,3.10
2019-01-26T07:16:35.422Z,1.52
2019-01-26T07:17:36.637Z,1.92
2019-01-26T07:18:37.858Z,1.57
2019-01-26T07:19:38.975Z,2.10
2019-01-26T07:20:40.103Z,1.37
2019-01-26T07:21:41.218Z,1.57
2019-01-26T07:22:42.335Z,1.65
2019-01-26T07:23:43.548Z,1.93
2019-01-26T07:24:44.659Z,1.90
2019-01-26T07:25:45.812Z,1.53
2019-01-26T07:26:46.928Z,1.40
2019-01-26T07:27:48.148Z,1.50
2019-01-26T07:28:49.369Z,1.40
2019-01-26T07:29:50.587Z,1.90
2019-01-26T07:30:51.732Z,1.50
2019-01-26T07:31:52.848Z,1.37
2019-01-26T07:32:53.962Z,1.67
2019-01-26T07:33:55.187Z,1.52
2019-01-26T07:34:56.401Z,1.30
2019-01-26T07:35:57.525Z,1.72
2019-01-26T07:36:58.633Z,1.85
2019-01-26T07:37:59.748Z,2.00
2019-01-26T07:39:00.859Z,2.17
2019-01-26T07:40:04.193Z,1.55
2019-01-26T07:41:05.322Z,1.57
2019-01-26T07:42:06.438Z,1.50
2019-01-26T07:43:07.559Z,1.70
2019-01-26T07:44:08.672Z,2.43
2019-01-26T07:45:10.992Z,1.60
2019-01-26T07:46:12.136Z,1.70
2019-01-26T07:47:13.355Z,1.70
2019-01-26T07:48:16.887Z,2.20
2019-01-26T07:49:17.480Z,2.02
2019-01-26T07:50:21.383Z,2.75
2019-01-26T07:51:22.509Z,2.55
2019-01-26T07:52:23.618Z,1.80
2019-01-26T07:53:24.737Z,2.00
2019-01-26T07:54:25.952Z,1.80
2019-01-26T07:55:27.064Z,1.57
2019-01-26T07:56:28.416Z,2.45
2019-01-26T07:57:29.527Z,2.20
2019-01-26T07:58:30.648Z,1.98
2019-01-26T07:59:31.886Z,3.60
2019-01-26T08:00:32.992Z,2.47
2019-01-26T08:01:34.251Z,1.57
2019-01-26T08:02:35.360Z,2.12
2019-01-26T08:03:36.468Z,1.70
2019-01-26T08:04:37.585Z,2.10
2019-01-26T08:05:39.269Z,2.55
2019-01-26T08:06:40.493Z,1.95
2019-01-26T08:07:41.607Z,2.47
2019-01-26T08:08:42.819Z,2.12
2019-01-26T08:09:43.933Z,2.10
2019-01-26T08:10:45.943Z,1.82
2019-01-26T08:11:47.072Z,2.55
2019-01-26T08:12:48.887Z,1.80
2019-01-26T08:13:50.104Z,2.92
2019-01-26T08:14:51.215Z,2.92
2019-01-26T08:15:52.319Z,2.70
2019-01-26T08:16:53.443Z,2.12
2019-01-26T08:17:54.660Z,1.95
2019-01-26T08:18:55.781Z,1.87
2019-01-26T08:19:56.894Z,1.92
2019-01-26T08:20:58.010Z,2.30
2019-01-26T08:21:59.238Z,1.95
2019-01-26T08:23:00.349Z,2.10
2019-01-26T08:24:01.473Z,2.00
2019-01-26T08:25:04.284Z,1.85
2019-01-26T08:26:05.397Z,2.62
2019-01-26T08:27:06.520Z,1.77
2019-01-26T08:28:07.738Z,2.22
2019-01-26T08:29:08.848Z,1.95
2019-01-26T08:30:18.110Z,2.47
2019-01-26T08:31:19.227Z,1.90
2019-01-26T08:32:20.456Z,1.85
2019-01-26T08:33:21.574Z,2.10
2019-01-26T08:34:22.692Z,2.37
2019-01-26T08:35:23.811Z,2.95
2019-01-26T08:36:25.358Z,3.22
2019-01-26T08:37:26.476Z,2.80
2019-01-26T08:38:28.905Z,2.42
2019-01-26T08:39:30.224Z,1.72
2019-01-26T08:40:31.335Z,2.08
2019-01-26T08:41:32.444Z,2.33
2019-01-26T08:42:33.580Z,4.12
2019-01-26T08:43:35.396Z,2.98
2019-01-26T08:44:36.511Z,3.37
2019-01-26T08:45:37.727Z,2.17
2019-01-26T08:46:38.845Z,2.10
2019-01-26T08:47:40.108Z,2.10
2019-01-26T08:48:41.216Z,3.20
2019-01-26T08:49:42.329Z,2.58
2019-01-26T08:50:43.448Z,2.75
2019-01-26T08:51:44.551Z,2.10
2019-01-26T08:52:45.712Z,2.05
2019-01-26T08:53:46.932Z,2.17
2019-01-26T08:54:48.146Z,2.20
2019-01-26T08:55:49.258Z,2.62
2019-01-26T08:56:50.382Z,2.85
2019-01-26T08:57:51.633Z,1.82
2019-01-26T08:58:52.765Z,2.52
2019-01-26T08:59:53.897Z,2.35
2019-01-26T09:00:55.035Z,2.02
2019-01-26T09:01:59.155Z,2.12
2019-01-26T09:03:02.316Z,3.47
2019-01-26T09:04:05.325Z,2.35
2019-01-26T09:05:07.138Z,3.92
2019-01-26T09:06:10.154Z,1.97
2019-01-26T09:07:11.400Z,2.50
2019-01-26T09:08:12.621Z,2.20
2019-01-26T09:09:13.845Z,2.62
2019-01-26T09:10:15.062Z,1.92
2019-01-26T09:11:16.174Z,2.00
2019-01-26T09:12:17.292Z,2.17
2019-01-26T09:13:18.453Z,2.20
2019-01-26T09:14:19.568Z,2.15
2019-01-26T09:15:21.484Z,2.30
2019-01-26T09:16:22.992Z,2.25
2019-01-26T09:17:24.101Z,2.30
2019-01-26T09:18:25.253Z,1.92
2019-01-26T09:19:26.367Z,2.12
2019-01-26T09:20:27.476Z,1.77
2019-01-26T09:21:28.699Z,1.97
2019-01-26T09:22:29.812Z,1.85
2019-01-26T09:23:30.936Z,1.87
2019-01-26T09:24:32.049Z,1.52
2019-01-26T09:25:33.164Z,1.55
2019-01-26T09:26:34.276Z,2.27
2019-01-26T09:27:35.497Z,1.90
2019-01-26T09:28:36.753Z,1.80
2019-01-26T09:29:37.866Z,1.90
2019-01-26T09:30:39.071Z,1.62
2019-01-26T09:31:40.183Z,2.58
2019-01-26T09:32:41.296Z,1.72
2019-01-26T09:33:42.674Z,2.77
2019-01-26T09:34:43.792Z,1.70
2019-01-26T09:35:44.980Z,1.67
2019-01-26T09:36:46.291Z,1.75
2019-01-26T09:37:47.403Z,1.40
2019-01-26T09:38:48.534Z,1.82
2019-01-26T09:39:49.647Z,1.80
2019-01-26T09:40:50.955Z,1.95
2019-01-26T09:41:52.166Z,1.87
2019-01-26T09:42:53.276Z,1.90
2019-01-26T09:43:54.416Z,1.90
2019-01-26T09:44:55.641Z,1.50
2019-01-26T09:45:56.756Z,1.90
2019-01-26T09:46:57.870Z,1.65
2019-01-26T09:47:58.983Z,1.98
2019-01-26T09:49:00.231Z,1.60
2019-01-26T09:50:01.449Z,1.52
2019-01-26T09:51:02.861Z,1.72
2019-01-26T09:52:04.276Z,1.42
2019-01-26T09:53:05.485Z,1.32
2019-01-26T09:54:06.671Z,1.62
2019-01-26T09:55:16.113Z,1.45
2019-01-26T09:56:17.225Z,1.72
2019-01-26T09:57:18.339Z,2.20
2019-01-26T09:58:20.033Z,1.72
2019-01-26T09:59:21.196Z,1.60
2019-01-26T10:00:23.821Z,1.72
2019-01-26T10:01:24.923Z,1.87
2019-01-26T10:02:26.037Z,2.00
2019-01-26T10:03:27.147Z,2.22
2019-01-26T10:04:28.300Z,2.10
2019-01-26T10:05:29.413Z,1.55
2019-01-26T10:06:30.627Z,1.70
2019-01-26T10:07:31.736Z,2.72
2019-01-26T10:08:32.858Z,2.02
2019-01-26T10:09:34.476Z,1.90
2019-01-26T10:10:35.691Z,2.00
2019-01-26T10:11:36.805Z,2.40
2019-01-26T10:12:37.917Z,2.47
2019-01-26T10:13:39.032Z,2.20
2019-01-26T10:14:40.156Z,2.42
2019-01-26T10:15:41.368Z,1.87
2019-01-26T10:16:42.589Z,2.05
2019-01-26T10:17:45.921Z,2.35
2019-01-26T10:18:53.302Z,1.95
2019-01-26T10:19:49.940Z,2.27
2019-01-26T10:20:51.164Z,2.10
2019-01-26T10:21:52.275Z,2.08
2019-01-26T10:22:53.382Z,3.73
2019-01-26T10:23:54.496Z,2.65
2019-01-26T10:24:55.628Z,4.50
2019-01-26T10:25:56.840Z,2.47
2019-01-26T10:26:57.956Z,2.92
2019-01-26T10:27:59.263Z,2.20
2019-01-26T10:29:00.376Z,1.92
2019-01-26T10:30:01.707Z,2.65
2019-01-26T10:31:02.815Z,2.25
2019-01-26T10:32:04.028Z,2.17
2019-01-26T10:33:05.137Z,2.05
2019-01-26T10:34:06.257Z,3.10
2019-01-26T10:35:07.429Z,3.02
2019-01-26T10:36:10.404Z,2.87
2019-01-26T10:37:13.422Z,2.65
2019-01-26T10:38:14.535Z,3.00
2019-01-26T10:39:16.356Z,2.52
2019-01-26T10:40:36.411Z,2.27
2019-01-26T10:41:39.417Z,2.35
2019-01-26T10:42:40.629Z,3.50
2019-01-26T10:43:43.640Z,3.75
2019-01-26T10:44:45.257Z,2.17
2019-01-26T10:45:46.520Z,2.90
2019-01-26T10:46:47.628Z,2.27
2019-01-26T10:47:48.745Z,2.42
2019-01-26T10:48:49.865Z,2.87
2019-01-26T10:49:50.973Z,2.65
2019-01-26T10:50:52.161Z,2.33
2019-01-26T10:51:53.246Z,2.27
2019-01-26T10:52:54.368Z,2.40
2019-01-26T10:53:55.580Z,3.00
2019-01-26T10:54:56.807Z,2.60
2019-01-26T10:55:57.953Z,2.55
2019-01-26T10:56:59.172Z,2.60
2019-01-26T10:58:00.282Z,2.10
2019-01-26T10:59:01.388Z,2.40
2019-01-26T11:00:06.218Z,2.58
2019-01-26T11:01:07.379Z,2.43
2019-01-26T11:02:08.597Z,2.95
2019-01-26T11:03:09.709Z,2.10
2019-01-26T11:04:10.820Z,2.95
2019-01-26T11:05:12.243Z,2.40
2019-01-26T11:06:13.404Z,2.77
2019-01-26T11:07:15.827Z,3.02
2019-01-26T11:08:17.034Z,2.50
2019-01-26T11:09:18.149Z,2.27
2019-01-26T11:10:19.261Z,2.37
2019-01-26T11:11:21.507Z,2.37
2019-01-26T11:12:22.613Z,2.67
2019-01-26T11:13:23.731Z,2.60
2019-01-26T11:14:24.851Z,1.75
2019-01-26T11:15:26.070Z,2.15
2019-01-26T11:16:27.226Z,2.27
2019-01-26T11:17:28.450Z,2.15
2019-01-26T11:18:29.568Z,2.95
2019-01-26T11:19:30.785Z,2.40
2019-01-26T11:20:31.905Z,2.40
2019-01-26T11:21:33.078Z,2.27
2019-01-26T11:22:34.192Z,2.52
2019-01-26T11:23:35.304Z,2.45
2019-01-26T11:24:36.522Z,2.40
2019-01-26T11:25:37.628Z,2.40
2019-01-26T11:26:38.782Z,3.35
2019-01-26T11:27:39.889Z,4.97
2019-01-26T11:28:41.104Z,3.12
2019-01-26T11:29:42.322Z,2.65
2019-01-26T11:30:43.539Z,2.22
2019-01-26T11:31:44.866Z,2.50
2019-01-26T11:32:45.984Z,2.55
2019-01-26T11:33:47.096Z,2.27
2019-01-26T11:34:48.208Z,3.22
2019-01-26T11:35:49.319Z,3.00
2019-01-26T11:36:50.554Z,2.67
2019-01-26T11:37:51.661Z,2.47
2019-01-26T11:38:52.883Z,3.30
2019-01-26T11:39:55.903Z,2.45
2019-01-26T11:40:57.018Z,2.65
2019-01-26T11:41:58.141Z,2.80
2019-01-26T11:42:59.254Z,3.05
2019-01-26T11:44:00.467Z,2.75
2019-01-26T11:45:03.492Z,2.92
2019-01-26T11:46:06.489Z,2.58
2019-01-26T11:47:07.622Z,2.85
2019-01-26T11:48:13.543Z,2.67
2019-01-26T11:49:15.233Z,2.40
2019-01-26T11:50:18.486Z,2.40
2019-01-26T11:51:21.499Z,2.50
2019-01-26T11:52:22.657Z,2.45
2019-01-26T11:53:23.768Z,3.12
2019-01-26T11:54:24.877Z,3.12
2019-01-26T11:55:36.970Z,2.50
2019-01-26T11:56:42.490Z,2.20
2019-01-26T11:57:43.642Z,2.05
2019-01-26T11:58:44.757Z,2.40
2019-01-26T11:59:47.784Z,2.42
2019-01-26T12:01:07.208Z,3.12
2019-01-26T12:02:10.220Z,1.92
2019-01-26T12:03:15.756Z,2.40
2019-01-26T12:04:24.811Z,1.90
2019-01-26T12:05:27.796Z,1.90
2019-01-26T12:06:30.812Z,1.77
2019-01-26T12:07:32.029Z,2.00
2019-01-26T12:08:33.154Z,2.60
2019-01-26T12:09:34.267Z,2.25
2019-01-26T12:10:35.480Z,2.30
2019-01-26T12:11:36.596Z,2.27
2019-01-26T12:12:37.710Z,2.17
2019-01-26T12:13:39.255Z,1.95
2019-01-26T12:14:40.412Z,2.42
2019-01-26T12:15:41.494Z,2.58
2019-01-26T12:16:42.715Z,2.20
2019-01-26T12:17:43.925Z,2.20
2019-01-26T12:18:45.074Z,2.08
2019-01-26T12:19:46.188Z,2.10
2019-01-26T12:20:47.311Z,2.02
2019-01-26T12:21:48.419Z,2.55
2019-01-26T12:22:49.528Z,2.30
2019-01-26T12:23:50.652Z,2.05
2019-01-26T12:24:51.760Z,2.87
2019-01-26T12:25:52.900Z,1.95
2019-01-26T12:26:53.980Z,2.22
2019-01-26T12:27:55.097Z,1.90
2019-01-26T12:28:56.428Z,2.10
2019-01-26T12:29:57.554Z,2.20
2019-01-26T12:30:58.665Z,1.85
2019-01-26T12:31:59.875Z,2.17
2019-01-26T12:33:01.088Z,1.90
2019-01-26T12:34:02.290Z,1.50
2019-01-26T12:35:06.996Z,3.15
2019-01-26T12:36:08.110Z,2.92
2019-01-26T12:37:09.329Z,2.40
2019-01-26T12:38:10.453Z,1.92
2019-01-26T12:39:11.578Z,3.02
2019-01-26T12:40:13.686Z,2.03
2019-01-26T12:41:14.796Z,1.80
2019-01-26T12:42:15.907Z,2.27
2019-01-26T12:43:17.136Z,2.12
2019-01-26T12:44:18.451Z,1.57
2019-01-26T12:45:20.275Z,2.50
2019-01-26T12:46:21.383Z,1.85
2019-01-26T12:47:22.495Z,1.90
2019-01-26T12:48:23.609Z,2.85
2019-01-26T12:49:29.499Z,2.27
2019-01-26T12:50:27.852Z,2.35
2019-01-26T12:51:29.082Z,2.22
2019-01-26T12:52:30.202Z,2.20
2019-01-26T12:53:31.309Z,2.20
2019-01-26T12:54:32.642Z,2.37
2019-01-26T12:55:33.822Z,2.98
2019-01-26T12:56:34.929Z,1.95
2019-01-26T12:57:36.047Z,2.17
2019-01-26T12:58:37.170Z,2.05
2019-01-26T12:59:38.289Z,1.98
2019-01-26T13:00:39.516Z,2.33
2019-01-26T13:01:40.660Z,2.00
2019-01-26T13:02:41.772Z,1.42
2019-01-26T13:03:42.920Z,1.77
2019-01-26T13:04:44.153Z,1.83
2019-01-26T13:05:45.371Z,1.80
2019-01-26T13:06:46.485Z,1.65
2019-01-26T13:07:47.694Z,2.25
2019-01-26T13:08:48.912Z,1.60
2019-01-26T13:09:50.052Z,2.08
2019-01-26T13:10:54.763Z,2.02
2019-01-26T13:11:55.882Z,1.98
2019-01-26T13:12:57.096Z,1.72
2019-01-26T13:13:58.213Z,2.22
2019-01-26T13:14:59.340Z,2.05
2019-01-26T13:16:00.943Z,1.80
2019-01-26T13:17:02.170Z,3.83
2019-01-26T13:18:03.682Z,2.90
2019-01-26T13:19:04.794Z,2.35
2019-01-26T13:20:09.554Z,2.20
2019-01-26T13:21:10.660Z,2.05
2019-01-26T13:22:11.769Z,4.15
2019-01-26T13:23:12.882Z,3.42
2019-01-26T13:24:13.996Z,2.30
2019-01-26T13:25:17.393Z,2.15
2019-01-26T13:26:18.505Z,2.90
2019-01-26T13:27:19.618Z,2.53
2019-01-26T13:28:21.000Z,2.25
2019-01-26T13:29:22.143Z,2.40
2019-01-26T13:30:24.094Z,2.37
2019-01-26T13:31:25.203Z,1.70
2019-01-26T13:32:26.315Z,1.95
2019-01-26T13:33:27.428Z,2.12
2019-01-26T13:34:28.548Z,1.70
2019-01-26T13:35:29.672Z,1.95
2019-01-26T13:36:30.783Z,3.12
2019-01-26T13:37:31.900Z,2.00